Time;durP1;ratioP1;P1;durP2;ratioP2;P2;SDS_P1;SDS_P2;PMS_P1;PMS_P2;Temp;Humidity;BMP_temperature;BMP_pressure;BME280_temperature;BME280_humidity;BME280_pressure;Samples;Min_cycle;Max_cycle;Signal;HPM_P1;HPM_P2
2021/09/30 00:00:36;;;;;;;3.83;1.10;;;;;;;8.77;74.44;101851.94;6168126;23;20012;-77
2021/09/30 00:03:01;;;;;;;4.63;1.27;;;;;;;8.76;74.45;101843.91;6193218;23;20004;-77
2021/09/30 00:05:27;;;;;;;4.32;1.42;;;;;;;8.75;74.46;101839.44;6219194;23;20440;-77
2021/09/30 00:07:52;;;;;;;3.47;1.42;;;;;;;8.71;74.69;101839.94;6167736;23;20009;-77
2021/09/30 00:10:21;;;;;;;6.45;1.70;;;;;;;8.69;74.65;101836.59;6192716;23;20425;-77
2021/09/30 00:13:02;;;;;;;6.80;1.30;;;;;;;8.66;74.77;101837.09;6218919;23;20009;-76
2021/09/30 00:42:24;;;;;;;4.65;1.00;;;;;;;8.32;75.28;101833.34;6170967;23;20095;-76
2021/09/30 00:50:29;;;;;;;2.40;0.98;;;;;;;8.19;75.95;101823.44;6218901;23;20425;-76
2021/09/30 00:53:14;;;;;;;5.13;1.25;;;;;;;8.15;75.72;101811.16;6218889;23;20365;-76
2021/09/30 00:56:06;;;;;;;6.38;1.27;;;;;;;8.13;75.88;101818.03;6218238;23;20442;-76
2021/09/30 01:19:04;;;;;;;6.13;1.60;;;;;;;7.88;76.29;101804.50;6218649;23;20388;-76
2021/09/30 02:19:38;;;;;;;5.43;1.15;;;;;;;7.24;77.37;101758.31;6176733;23;20015;-76
2021/09/30 02:29:49;;;;;;;3.60;1.30;;;;;;;7.18;77.31;101755.69;6220385;23;20005;-76
2021/09/30 02:59:32;;;;;;;4.90;1.67;;;;;;;7.02;77.40;101751.72;6197239;23;20008;-76
2021/09/30 03:01:57;;;;;;;4.15;1.20;;;;;;;6.95;77.84;101757.38;6168386;23;20103;-76
2021/09/30 03:04:23;;;;;;;4.88;1.30;;;;;;;6.93;78.10;101752.09;6193162;23;20008;-75
2021/09/30 03:06:48;;;;;;;4.53;1.05;;;;;;;6.91;77.96;101757.03;6168429;23;20012;-75
2021/09/30 03:09:18;;;;;;;9.48;1.20;;;;;;;6.87;78.17;101764.09;6168917;23;20087;-75
2021/09/30 03:11:49;;;;;;;2.67;1.02;;;;;;;6.85;78.10;101760.75;6169873;23;20449;-75
2021/09/30 03:14:14;;;;;;;2.95;1.10;;;;;;;6.81;78.26;101759.53;6145583;23;20015;-75
2021/09/30 03:16:44;;;;;;;2.92;1.15;;;;;;;6.81;78.05;101761.47;6193115;23;20009;-76
2021/09/30 03:19:20;;;;;;;6.32;1.40;;;;;;;6.80;77.84;101760.63;6170263;23;20000;-76
2021/09/30 03:24:30;;;;;;;5.68;1.20;;;;;;;6.74;77.89;101756.03;6197054;23;20062;-76
2021/09/30 03:26:56;;;;;;;5.40;1.67;;;;;;;6.71;77.89;101756.50;6192522;23;20013;-76
2021/09/30 03:29:21;;;;;;;4.75;1.40;;;;;;;6.69;77.80;101754.00;6168322;23;20008;-76
2021/09/30 03:31:47;;;;;;;4.47;1.20;;;;;;;6.63;77.75;101759.63;6218126;23;20019;-76
2021/09/30 03:34:13;;;;;;;4.85;1.23;;;;;;;6.61;77.84;101764.56;6168505;23;20004;-76
2021/09/30 03:36:38;;;;;;;3.50;1.10;;;;;;;6.59;77.73;101769.47;6168041;23;20008;-75
2021/09/30 03:39:04;;;;;;;4.15;1.33;;;;;;;6.58;77.66;101767.78;6219973;23;20012;-76
2021/09/30 03:41:29;;;;;;;4.35;1.13;;;;;;;6.53;77.67;101775.94;6192572;23;20012;-75
2021/09/30 03:43:55;;;;;;;5.38;1.17;;;;;;;6.57;77.51;101777.13;6193471;23;20004;-77
2021/09/30 03:46:20;;;;;;;4.78;1.48;;;;;;;6.48;77.87;101780.22;6167828;23;20063;-76
2021/09/30 03:48:53;;;;;;;3.35;1.42;;;;;;;6.44;77.89;101769.91;6219344;23;20012;-77
2021/09/30 03:51:46;;;;;;;;;;;;;;;6.42;77.86;101770.13;6193493;23;20005;-76
2021/09/30 03:54:22;;;;;;;6.13;1.40;;;;;;;6.35;78.01;101772.16;6198609;23;19904;-77
2021/09/30 03:59:32;;;;;;;6.05;1.40;;;;;;;6.37;77.77;101756.19;6196610;23;20047;-76
2021/09/30 04:01:58;;;;;;;4.20;1.30;;;;;;;6.33;77.69;101760.53;6192628;23;20008;-76
2021/09/30 04:04:27;;;;;;;4.30;1.27;;;;;;;6.37;77.59;101761.72;6219113;23;20001;-76
2021/09/30 04:06:54;;;;;;;2.20;1.15;;;;;;;6.33;77.69;101756.94;6218861;23;20255;-76
2021/09/30 04:09:26;;;;;;;2.40;1.13;;;;;;;6.26;77.89;101757.84;6219002;23;20008;-76
2021/09/30 04:11:52;;;;;;;2.53;1.23;;;;;;;6.24;77.89;101760.03;6218998;23;20009;-76
2021/09/30 04:14:17;;;;;;;3.20;0.90;;;;;;;6.21;77.94;101752.22;6219178;23;20011;-77
2021/09/30 04:16:47;;;;;;;3.38;1.00;;;;;;;6.18;78.11;101747.13;6192501;23;20004;-76
2021/09/30 04:19:17;;;;;;;2.05;0.82;;;;;;;6.17;78.24;101747.38;6168844;23;20023;-76
2021/09/30 04:21:43;;;;;;;3.28;1.08;;;;;;;6.15;78.26;101742.09;6218909;23;20047;-76
2021/09/30 04:24:08;;;;;;;1.77;0.70;;;;;;;6.17;78.05;101741.88;6219241;23;20434;-76
2021/09/30 04:26:34;;;;;;;4.78;1.20;;;;;;;6.14;78.34;101745.94;6218478;23;20032;-76
2021/09/30 04:28:59;;;;;;;2.13;0.98;;;;;;;6.10;78.23;101738.34;6218943;23;20034;-76
2021/09/30 04:31:25;;;;;;;3.45;0.93;;;;;;;6.12;78.17;101741.72;6219118;23;20008;-76
2021/09/30 04:33:51;;;;;;;3.67;0.80;;;;;;;6.07;78.39;101739.66;6192582;23;20012;-76
2021/09/30 04:36:16;;;;;;;2.67;0.80;;;;;;;6.06;78.45;101739.91;6219304;23;20016;-76
2021/09/30 04:38:45;;;;;;;3.35;0.70;;;;;;;6.10;78.18;101733.72;6218961;23;20058;-76
2021/09/30 04:41:10;;;;;;;2.92;0.57;;;;;;;6.08;78.09;101738.59;6218416;23;20087;-76
2021/09/30 04:43:36;;;;;;;3.92;0.95;;;;;;;6.09;78.21;101742.19;6217440;23;20009;-76
2021/09/30 04:46:01;;;;;;;2.95;0.82;;;;;;;6.04;78.28;101746.53;6192234;23;20016;-76
2021/09/30 04:48:27;;;;;;;3.28;0.93;;;;;;;6.03;78.18;101744.81;6218873;23;20328;-76
2021/09/30 04:50:52;;;;;;;2.75;0.95;;;;;;;6.04;78.16;101746.53;6218651;23;20009;-77
2021/09/30 04:53:18;;;;;;;2.35;0.80;;;;;;;6.01;78.37;101741.44;6167390;23;20004;-76
2021/09/30 04:55:43;;;;;;;2.13;0.88;;;;;;;6.01;78.35;101746.13;6142546;23;20059;-76
2021/09/30 04:58:09;;;;;;;1.95;0.85;;;;;;;6.05;78.24;101741.84;6167699;23;20369;-76
2021/09/30 05:00:34;;;;;;;2.30;0.80;;;;;;;5.99;78.64;101745.50;6167638;23;20016;-77
2021/09/30 05:03:00;;;;;;;3.20;0.88;;;;;;;5.93;78.80;101739.00;6167267;23;20009;-76
2021/09/30 05:05:25;;;;;;;4.43;1.17;;;;;;;5.93;78.97;101736.25;6218673;23;20004;-76
2021/09/30 05:07:51;;;;;;;4.32;1.00;;;;;;;5.92;78.86;101737.31;6142799;23;20005;-76
2021/09/30 05:10:19;;;;;;;3.80;1.13;;;;;;;5.88;78.92;101738.00;6218503;23;20036;-77
2021/09/30 05:12:46;;;;;;;2.88;0.88;;;;;;;5.87;78.85;101736.31;6192708;23;20307;-76
2021/09/30 05:15:11;;;;;;;4.93;1.10;;;;;;;5.84;78.81;101740.38;6218623;23;20008;-76
2021/09/30 05:17:37;;;;;;;5.35;1.38;;;;;;;5.83;78.89;101744.22;6192070;23;20012;-76
2021/09/30 05:20:03;;;;;;;3.33;0.80;;;;;;;5.85;78.73;101738.47;6194807;23;20001;-76
2021/09/30 05:22:29;;;;;;;4.57;1.13;;;;;;;5.78;78.97;101744.91;6220471;23;20091;-76
2021/09/30 05:24:54;;;;;;;3.42;1.10;;;;;;;5.76;79.13;101737.94;6195333;23;20012;-76
2021/09/30 05:27:19;;;;;;;4.75;1.10;;;;;;;5.77;78.88;101725.88;6221848;23;20012;-77
2021/09/30 05:29:45;;;;;;;5.07;1.23;;;;;;;5.72;78.87;101720.19;6195513;23;20008;-77
2021/09/30 05:32:10;;;;;;;3.60;1.20;;;;;;;5.69;78.98;101718.75;6195610;23;20441;-76
2021/09/30 05:34:36;;;;;;;4.03;1.40;;;;;;;5.69;78.99;101709.63;6220349;23;20012;-76
2021/09/30 05:37:02;;;;;;;4.15;1.38;;;;;;;5.67;79.10;101709.84;6195366;23;20094;-71
2021/09/30 05:39:27;;;;;;;5.20;1.10;;;;;;;5.67;78.90;101712.63;6220153;23;20450;-71
2021/09/30 05:41:54;;;;;;;4.97;1.20;;;;;;;5.68;79.17;101710.69;6221565;23;20452;-71
2021/09/30 05:44:23;;;;;;;4.07;1.00;;;;;;;5.63;79.22;101716.06;6221769;23;20007;-72
2021/09/30 05:46:53;;;;;;;4.82;1.20;;;;;;;5.64;79.11;101712.25;6220061;23;20039;-71
2021/09/30 05:49:20;;;;;;;4.35;1.10;;;;;;;5.63;78.98;101707.78;6196183;23;20005;-71
2021/09/30 05:51:45;;;;;;;4.55;1.40;;;;;;;5.59;79.05;101707.41;6222079;23;20008;-71
2021/09/30 05:54:11;;;;;;;4.65;1.30;;;;;;;5.57;79.25;101707.66;6221718;23;20008;-71
2021/09/30 05:56:36;;;;;;;3.83;1.10;;;;;;;5.51;79.33;101719.59;6194553;23;20013;-72
2021/09/30 05:59:02;;;;;;;4.63;1.20;;;;;;;5.56;79.17;101717.00;6194884;23;20429;-72
2021/09/30 06:14:32;;;;;;;2.20;0.90;;;;;;;5.45;79.48;101720.53;6220125;23;20102;-71
2021/09/30 06:16:58;;;;;;;4.57;1.27;;;;;;;5.44;79.47;101716.09;6222051;23;20013;-70
2021/09/30 06:19:23;;;;;;;3.15;0.90;;;;;;;5.42;79.63;101706.38;6221895;23;20016;-70
2021/09/30 06:21:49;;;;;;;3.38;1.10;;;;;;;5.46;80.38;101700.19;6221467;23;20013;-74
2021/09/30 06:24:20;;;;;;;2.97;0.93;;;;;;;5.58;81.97;101695.56;6221718;23;20013;-73
2021/09/30 06:26:46;;;;;;;3.20;1.20;;;;;;;5.62;81.37;101695.94;6221100;23;20012;-70
2021/09/30 06:29:12;;;;;;;5.93;1.20;;;;;;;5.64;81.06;101695.72;6221987;23;20008;-71
2021/09/30 06:31:37;;;;;;;3.10;1.10;;;;;;;5.69;80.78;101693.09;6193589;23;20008;-71
2021/09/30 06:34:03;;;;;;;2.58;0.93;;;;;;;5.73;80.81;101697.06;6193372;23;20031;-70
2021/09/30 06:36:28;;;;;;;3.53;1.23;;;;;;;5.79;80.83;101699.75;6218658;23;20008;-70
2021/09/30 06:38:54;;;;;;;4.00;1.15;;;;;;;5.88;80.97;101696.63;6220049;23;20008;-70
2021/09/30 06:41:19;;;;;;;2.30;1.08;;;;;;;5.92;81.37;101690.44;6219854;23;20019;-70
2021/09/30 06:43:45;;;;;;;2.65;1.02;;;;;;;5.96;82.06;101705.47;6218084;23;20004;-70
2021/09/30 06:46:10;;;;;;;4.05;1.48;;;;;;;6.03;82.60;101716.41;6144083;23;20005;-70
2021/09/30 06:48:36;;;;;;;4.63;1.30;;;;;;;6.08;83.02;101719.31;6168531;23;20012;-70
2021/09/30 06:51:01;;;;;;;3.63;1.60;;;;;;;6.17;83.29;101722.56;6168639;23;20031;-70
2021/09/30 06:53:27;;;;;;;5.05;1.20;;;;;;;6.22;83.01;101715.25;6169047;23;20075;-73
2021/09/30 06:55:55;;;;;;;4.85;1.85;;;;;;;6.33;82.90;101716.38;6167949;23;20004;-73
2021/09/30 06:58:24;;;;;;;6.57;1.60;;;;;;;6.43;82.47;101713.84;6218017;23;20000;-73
2021/09/30 07:00:49;;;;;;;7.32;1.75;;;;;;;6.53;81.77;101720.72;6170037;23;20005;-73
2021/09/30 07:03:15;;;;;;;7.85;1.73;;;;;;;6.63;81.78;101715.44;6143890;23;20004;-73
2021/09/30 07:05:40;;;;;;;5.47;1.60;;;;;;;6.74;81.12;101717.38;6193348;23;20005;-73
2021/09/30 07:08:07;;;;;;;5.03;1.60;;;;;;;6.89;81.40;101727.97;6219591;23;20013;-73
2021/09/30 07:10:32;;;;;;;5.82;1.73;;;;;;;6.99;81.50;101719.06;6219413;23;20035;-73
2021/09/30 07:12:58;;;;;;;4.60;1.67;;;;;;;7.13;81.40;101714.97;6220233;23;20001;-73
2021/09/30 07:15:24;;;;;;;4.63;2.15;;;;;;;7.26;81.00;101719.41;6219955;23;20004;-73
2021/09/30 07:17:49;;;;;;;5.55;1.67;;;;;;;7.38;80.83;101718.31;6189940;23;20086;-73
2021/09/30 07:20:15;;;;;;;4.60;1.95;;;;;;;7.53;81.02;101714.19;6218999;23;20004;-73
2021/09/30 07:22:40;;;;;;;3.42;1.70;;;;;;;7.66;80.87;101708.41;6143552;23;20074;-73
2021/09/30 07:25:06;;;;;;;3.38;1.67;;;;;;;7.81;81.04;101705.09;6219587;23;20012;-74
2021/09/30 07:27:31;;;;;;;4.28;1.75;;;;;;;7.95;80.49;101700.94;6217638;23;20009;-73
2021/09/30 07:29:57;;;;;;;4.30;1.80;;;;;;;8.10;80.93;101703.13;6168032;23;20008;-73
2021/09/30 07:32:24;;;;;;;3.42;1.60;;;;;;;8.25;80.91;101699.84;6219683;23;20067;-73
2021/09/30 07:34:50;;;;;;;4.38;1.60;;;;;;;8.42;80.84;101691.56;6192579;23;20009;-74
2021/09/30 07:37:15;;;;;;;4.10;1.55;;;;;;;8.57;81.38;101705.66;6118725;23;20008;-73
2021/09/30 07:39:41;;;;;;;6.53;1.50;;;;;;;8.75;81.18;101703.72;6167848;23;20437;-73
2021/09/30 07:42:06;;;;;;;3.72;1.40;;;;;;;8.89;81.94;101708.66;6167805;23;20039;-73
2021/09/30 07:44:33;;;;;;;3.88;1.23;;;;;;;9.05;82.15;101709.72;6167164;23;20417;-73
2021/09/30 07:46:58;;;;;;;2.95;1.30;;;;;;;9.23;81.70;101700.28;6167927;23;20043;-73
2021/09/30 07:49:24;;;;;;;2.25;1.00;;;;;;;9.39;81.96;101701.34;6168052;23;20012;-73
2021/09/30 07:51:49;;;;;;;3.10;1.27;;;;;;;9.56;81.39;101699.34;6167950;23;20008;-74
2021/09/30 07:54:15;;;;;;;4.57;1.33;;;;;;;9.75;82.39;101708.19;6167680;23;20013;-73
2021/09/30 07:56:41;;;;;;;5.53;1.48;;;;;;;9.91;81.97;101703.63;6143152;23;20496;-74
2021/09/30 07:59:06;;;;;;;4.72;1.20;;;;;;;10.08;81.96;101703.53;6167862;23;20013;-73
2021/09/30 08:01:32;;;;;;;6.93;1.40;;;;;;;10.25;83.21;101701.50;6142545;23;20031;-73
2021/09/30 08:03:59;;;;;;;5.53;1.27;;;;;;;10.43;83.63;101691.13;6167559;23;20426;-73
2021/09/30 08:06:25;;;;;;;6.45;1.40;;;;;;;10.58;85.23;101693.19;6167892;23;20005;-73
2021/09/30 08:08:51;;;;;;;7.10;1.50;;;;;;;10.73;83.42;101685.81;6118672;23;20372;-73
2021/09/30 08:11:16;;;;;;;5.30;1.20;;;;;;;10.90;85.48;101685.66;6143140;23;20009;-73
2021/09/30 08:13:42;;;;;;;3.75;0.82;;;;;;;11.06;84.33;101688.53;6143230;23;20013;-74
2021/09/30 08:16:07;;;;;;;6.57;1.42;;;;;;;11.22;84.19;101687.50;6168243;23;20009;-72
2021/09/30 08:18:33;;;;;;;7.30;1.63;;;;;;;11.36;83.73;101694.25;6167924;23;20047;-71
2021/09/30 08:20:59;;;;;;;8.40;1.33;;;;;;;11.54;82.78;101694.91;6167666;23;20094;-71
2021/09/30 08:23:24;;;;;;;4.05;1.10;;;;;;;11.68;81.73;101689.69;6167547;23;20099;-72
2021/09/30 08:25:50;;;;;;;6.22;1.50;;;;;;;11.81;82.52;101684.44;6167685;23;20056;-72
2021/09/30 08:28:17;;;;;;;5.97;1.60;;;;;;;11.97;81.75;101690.06;6167431;23;20061;-72
2021/09/30 08:30:42;;;;;;;8.95;1.33;;;;;;;12.08;82.48;101675.03;6143537;23;20414;-72
2021/09/30 08:33:11;;;;;;;9.10;1.65;;;;;;;12.22;82.65;101673.41;6142882;23;20016;-72
2021/09/30 08:35:37;;;;;;;5.80;1.42;;;;;;;12.37;81.89;101674.50;6143967;23;20355;-72
2021/09/30 08:38:03;;;;;;;5.55;1.52;;;;;;;12.48;82.00;101679.84;6167796;23;20008;-72
2021/09/30 08:40:28;;;;;;;11.02;2.30;;;;;;;12.60;81.49;101676.75;6167421;23;20079;-72
2021/09/30 08:42:55;;;;;;;10.02;2.33;;;;;;;12.70;80.66;101685.13;6142928;23;20008;-72
2021/09/30 08:45:20;;;;;;;9.35;2.20;;;;;;;12.84;80.20;101690.97;6142757;23;20016;-72
2021/09/30 08:47:56;;;;;;;7.72;2.13;;;;;;;12.96;79.35;101687.88;6166637;23;20009;-72
2021/09/30 08:50:22;;;;;;;7.03;2.08;;;;;;;13.08;79.28;101680.03;6119247;23;20595;-74
2021/09/30 08:52:48;;;;;;;10.52;2.20;;;;;;;13.17;80.35;101691.44;6167990;23;20012;-72
2021/09/30 08:55:13;;;;;;;8.48;1.75;;;;;;;13.31;78.58;101691.72;6166803;23;20004;-71
2021/09/30 08:57:44;;;;;;;7.63;2.13;;;;;;;13.46;77.75;101691.69;6142618;23;20001;-70
2021/09/30 09:00:10;;;;;;;9.18;1.70;;;;;;;13.58;78.00;101691.34;6168027;23;20011;-71
2021/09/30 09:02:41;;;;;;;5.68;1.95;;;;;;;13.68;79.25;101677.34;6167680;23;20430;-70
2021/09/30 09:05:06;;;;;;;9.45;1.75;;;;;;;13.83;77.76;101679.22;6143362;23;20091;-71
2021/09/30 09:07:33;;;;;;;5.93;1.55;;;;;;;13.98;76.73;101686.66;6167387;23;20063;-71
2021/09/30 09:09:59;;;;;;;6.20;1.50;;;;;;;14.09;76.20;101672.34;6143186;23;20500;-70
2021/09/30 09:12:26;;;;;;;10.75;1.90;;;;;;;14.23;76.18;101668.91;6167091;23;20005;-69
2021/09/30 09:14:52;;;;;;;6.18;1.70;;;;;;;14.34;76.01;101662.09;6168485;23;20009;-70
2021/09/30 09:17:19;;;;;;;7.43;1.40;;;;;;;14.46;75.86;101664.56;6143014;23;19997;-69
2021/09/30 09:19:46;;;;;;;5.28;1.88;;;;;;;14.58;75.61;101662.22;6167580;23;20044;-70
2021/09/30 09:22:22;;;;;;;5.20;1.67;;;;;;;14.71;75.55;101655.13;6167287;23;20019;-70
2021/09/30 09:25:06;;;;;;;10.32;1.65;;;;;;;14.78;75.26;101650.00;6191616;23;20012;-70
2021/09/30 09:27:44;;;;;;;9.98;1.50;;;;;;;14.93;74.75;101658.25;6167645;23;20004;-70
2021/09/30 09:30:41;;;;;;;7.13;1.48;;;;;;;15.05;73.60;101643.03;6166519;23;20016;-69
2021/09/30 09:33:12;;;;;;;7.22;1.70;;;;;;;15.18;73.50;101639.50;6191844;23;20009;-70
2021/09/30 09:35:44;;;;;;;11.32;1.20;;;;;;;15.28;72.54;101635.78;6167318;23;20013;-70
2021/09/30 09:38:11;;;;;;;8.68;1.55;;;;;;;15.38;72.13;101639.28;6216852;23;20027;-69
2021/09/30 09:40:37;;;;;;;6.00;1.48;;;;;;;15.48;71.94;101641.09;6192566;23;20017;-70
2021/09/30 09:43:21;;;;;;;4.13;1.52;;;;;;;15.61;71.56;101643.16;6142673;23;20015;-70
2021/09/30 09:45:47;;;;;;;5.75;1.38;;;;;;;15.72;70.58;101645.88;6170235;23;20009;-69
2021/09/30 09:48:15;;;;;;;7.43;1.70;;;;;;;15.79;70.58;101646.31;6167032;23;20000;-70
2021/09/30 09:50:41;;;;;;;8.82;1.52;;;;;;;15.92;70.14;101641.94;6167421;23;20019;-70
2021/09/30 09:53:06;;;;;;;4.90;1.48;;;;;;;15.99;70.29;101646.03;6166700;23;20016;-70
2021/09/30 09:55:36;;;;;;;6.60;1.55;;;;;;;16.08;69.99;101634.97;6142206;23;20013;-70
2021/09/30 09:58:16;;;;;;;5.88;1.35;;;;;;;16.20;70.48;101640.09;6167351;23;20040;-70
2021/09/30 10:00:51;;;;;;;7.60;1.30;;;;;;;16.23;68.78;101633.91;6192446;23;20104;-70
2021/09/30 10:03:18;;;;;;;5.30;1.20;;;;;;;16.36;69.26;101624.72;6193569;23;20008;-70
2021/09/30 10:05:45;;;;;;;9.60;1.40;;;;;;;16.50;68.51;101616.34;6167731;23;20012;-70
2021/09/30 10:08:10;;;;;;;6.25;1.10;;;;;;;16.58;68.23;101621.25;6194123;23;20008;-70
2021/09/30 10:10:36;;;;;;;6.68;1.30;;;;;;;16.65;67.99;101612.41;6168776;23;20015;-70
2021/09/30 10:13:02;;;;;;;5.88;1.20;;;;;;;16.79;67.34;101606.88;6143716;23;20334;-70
2021/09/30 10:15:28;;;;;;;8.68;1.20;;;;;;;16.89;65.77;101612.28;6168437;23;20016;-70
2021/09/30 10:17:54;;;;;;;4.38;1.00;;;;;;;17.00;66.26;101598.91;6168845;23;20542;-70
2021/09/30 10:20:19;;;;;;;6.97;0.90;;;;;;;17.10;65.61;101601.47;6169172;23;20000;-70
2021/09/30 10:22:52;;;;;;;5.93;1.00;;;;;;;17.23;65.37;101605.44;6143941;23;20021;-71
2021/09/30 10:25:17;;;;;;;6.03;1.02;;;;;;;17.30;63.96;101603.88;6143817;23;20187;-71
2021/09/30 10:27:43;;;;;;;5.97;0.90;;;;;;;17.39;63.25;101601.16;6168742;23;20437;-69
2021/09/30 10:30:32;;;;;;;6.00;1.02;;;;;;;17.48;63.71;101604.06;6168177;23;20032;-70
2021/09/30 10:32:58;;;;;;;5.78;0.80;;;;;;;17.56;62.54;101594.91;6170641;23;20005;-70
2021/09/30 10:35:35;;;;;;;5.75;1.00;;;;;;;17.67;63.48;101587.06;6168605;23;20480;-70
2021/09/30 10:38:27;;;;;;;7.55;1.10;;;;;;;17.77;63.59;101584.00;6144582;23;20005;-70
2021/09/30 10:41:15;;;;;;;6.10;1.10;;;;;;;17.89;62.12;101578.72;6193183;23;20012;-70
2021/09/30 10:43:42;;;;;;;5.80;0.90;;;;;;;17.99;62.00;101575.63;6169191;23;20441;-70
2021/09/30 10:46:22;;;;;;;7.47;1.00;;;;;;;18.06;61.25;101566.78;6168238;23;20032;-70
2021/09/30 10:48:50;;;;;;;5.32;1.27;;;;;;;18.16;61.41;101571.31;6196267;23;20066;-69
2021/09/30 10:51:16;;;;;;;6.30;1.02;;;;;;;18.24;61.39;101565.72;6169226;23;20070;-70
2021/09/30 10:53:44;;;;;;;5.30;1.08;;;;;;;18.36;61.34;101575.56;6167825;23;20079;-70
2021/09/30 10:56:31;;;;;;;6.47;1.00;;;;;;;18.42;61.16;101565.88;6218043;23;20008;-70
2021/09/30 10:59:08;;;;;;;4.57;1.05;;;;;;;18.50;60.31;101553.84;6193580;23;20008;-70
2021/09/30 11:01:34;;;;;;;6.68;1.00;;;;;;;18.60;58.51;101553.53;6192710;23;20684;-70
2021/09/30 11:04:02;;;;;;;7.68;1.23;;;;;;;18.67;58.00;101555.91;6193022;23;20012;-70
2021/09/30 11:06:27;;;;;;;6.15;0.98;;;;;;;18.73;58.90;101555.44;6168478;23;20091;-70
2021/09/30 11:09:21;;;;;;;5.85;1.00;;;;;;;18.76;57.56;101542.72;6143763;23;20086;-70
2021/09/30 11:11:50;;;;;;;;;;;;;;;18.80;58.18;101549.34;6169019;23;20008;-70
2021/09/30 11:14:18;;;;;;;5.88;0.98;;;;;;;18.86;59.04;101539.63;6193078;23;19911;-70
2021/09/30 11:16:48;;;;;;;4.43;0.88;;;;;;;18.93;58.03;101544.78;6168148;23;20008;-70
2021/09/30 11:19:38;;;;;;;6.93;0.90;;;;;;;19.04;56.99;101525.59;6169340;23;20008;-70
2021/09/30 11:22:05;;;;;;;3.58;0.60;;;;;;;19.09;58.17;101533.91;6171169;23;20017;-70
2021/09/30 11:24:48;;;;;;;4.63;1.13;;;;;;;19.18;55.66;101523.50;6143629;23;20012;-70
2021/09/30 11:27:14;;;;;;;;;;;;;;;19.24;56.77;101527.81;6144676;23;20019;-70
2021/09/30 11:29:41;;;;;;;2.78;0.73;;;;;;;19.36;57.62;101513.06;6192847;23;19983;-70
2021/09/30 11:32:09;;;;;;;6.53;1.00;;;;;;;19.46;56.86;101517.56;6168856;23;20008;-70
2021/09/30 11:34:38;;;;;;;5.20;0.80;;;;;;;19.60;54.80;101513.44;6217671;23;20008;-70
2021/09/30 11:37:36;;;;;;;6.60;1.17;;;;;;;19.70;54.04;101503.84;6168836;23;20008;-71
2021/09/30 11:40:07;;;;;;;4.68;0.90;;;;;;;19.78;53.86;101500.22;6170711;23;20008;-71
2021/09/30 11:42:47;;;;;;;3.05;0.73;;;;;;;19.87;54.11;101494.56;6169206;23;20083;-70
2021/09/30 11:45:17;;;;;;;5.15;0.82;;;;;;;19.92;53.12;101490.72;6145210;23;20011;-71
2021/09/30 11:47:43;;;;;;;5.18;0.82;;;;;;;19.93;53.88;101498.84;6167997;23;20079;-71
2021/09/30 11:50:16;;;;;;;6.15;0.60;;;;;;;19.98;53.61;101495.03;6168007;23;20009;-71
2021/09/30 11:52:42;;;;;;;5.03;0.80;;;;;;;20.03;53.19;101494.84;6168450;23;20020;-71
2021/09/30 11:55:16;;;;;;;6.90;0.90;;;;;;;20.07;52.50;101476.13;6167697;23;20016;-70
2021/09/30 11:57:56;;;;;;;4.78;0.70;;;;;;;20.11;53.42;101476.25;6192406;23;20000;-71
2021/09/30 12:00:22;;;;;;;5.32;1.00;;;;;;;20.12;51.44;101481.59;6169003;23;20008;-71
2021/09/30 12:02:54;;;;;;;6.30;0.90;;;;;;;20.14;51.17;101478.41;6143676;23;20005;-71
2021/09/30 12:05:20;;;;;;;7.13;0.98;;;;;;;20.14;52.29;101465.13;6218508;23;20035;-71
2021/09/30 12:07:46;;;;;;;5.38;0.90;;;;;;;20.15;51.49;101461.16;6142843;23;20430;-71
2021/09/30 12:10:13;;;;;;;4.97;0.88;;;;;;;20.15;52.57;101460.34;6192375;23;20329;-71
2021/09/30 12:12:40;;;;;;;6.18;0.90;;;;;;;20.15;51.41;101454.69;6143643;23;20004;-71
2021/09/30 12:15:06;;;;;;;2.63;0.55;;;;;;;20.15;50.85;101440.59;6217115;23;20429;-71
2021/09/30 12:17:33;;;;;;;3.42;0.68;;;;;;;20.17;52.67;101439.09;6167433;23;20421;-71
2021/09/30 12:19:59;;;;;;;3.67;0.80;;;;;;;20.22;53.34;101436.06;6142996;23;20031;-71
2021/09/30 12:22:27;;;;;;;2.60;0.77;;;;;;;20.28;53.85;101431.94;6143021;23;20021;-71
2021/09/30 12:24:54;;;;;;;4.90;0.98;;;;;;;20.35;52.47;101439.03;6167546;23;20062;-71
2021/09/30 12:27:21;;;;;;;4.43;0.70;;;;;;;20.40;53.59;101427.56;6192084;23;20004;-71
2021/09/30 12:29:49;;;;;;;8.40;0.95;;;;;;;20.46;53.30;101414.91;6167733;23;20004;-71
2021/09/30 12:32:16;;;;;;;6.25;1.05;;;;;;;20.49;52.17;101414.22;6143553;23;20009;-71
2021/09/30 12:35:04;;;;;;;7.22;1.20;;;;;;;20.52;52.17;101410.72;6167501;23;20062;-70
2021/09/30 12:37:36;;;;;;;5.05;0.93;;;;;;;20.59;51.49;101407.41;6191821;23;20009;-71
2021/09/30 12:40:12;;;;;;;4.30;0.80;;;;;;;20.62;52.70;101406.75;6119255;23;20008;-71
2021/09/30 12:42:39;;;;;;;3.70;0.75;;;;;;;20.70;52.15;101405.88;6144216;23;20004;-71
2021/09/30 12:45:06;;;;;;;4.50;0.63;;;;;;;20.78;51.10;101398.50;6142629;23;20020;-70
2021/09/30 12:47:40;;;;;;;7.65;1.08;;;;;;;20.81;50.85;101403.44;6167490;23;20005;-71
2021/09/30 12:50:09;;;;;;;7.07;1.13;;;;;;;20.86;52.11;101400.44;6167775;23;20010;-71
2021/09/30 12:52:35;;;;;;;3.78;0.68;;;;;;;20.92;51.66;101390.59;6167802;23;20649;-70
2021/09/30 12:55:03;;;;;;;6.07;0.90;;;;;;;20.95;51.08;101392.75;6167074;23;20008;-71
2021/09/30 12:57:35;;;;;;;8.02;1.00;;;;;;;20.94;51.04;101391.91;6142889;23;20461;-71
2021/09/30 13:00:11;;;;;;;4.20;0.93;;;;;;;21.00;51.63;101384.03;6192205;23;20539;-71
2021/09/30 13:02:36;;;;;;;4.47;0.80;;;;;;;21.03;51.07;101386.19;6120038;23;20473;-71
2021/09/30 13:05:02;;;;;;;4.20;0.82;;;;;;;21.09;51.84;101386.81;6118062;23;20013;-71
2021/09/30 13:07:42;;;;;;;7.80;1.13;;;;;;;21.13;51.49;101379.31;6217287;23;20039;-71
2021/09/30 13:10:08;;;;;;;3.28;0.93;;;;;;;21.13;51.58;101370.84;6167227;23;20094;-71
2021/09/30 13:12:33;;;;;;;6.47;0.75;;;;;;;21.14;51.49;101366.81;6192441;23;20012;-71
2021/09/30 13:14:59;;;;;;;3.63;0.82;;;;;;;21.22;51.58;101350.97;6167063;23;20062;-71
2021/09/30 13:17:25;;;;;;;4.93;1.00;;;;;;;21.29;51.31;101371.03;6192184;23;20004;-70
2021/09/30 13:19:52;;;;;;;6.00;0.85;;;;;;;21.37;50.59;101364.50;6167357;23;20012;-71
2021/09/30 13:22:34;;;;;;;4.25;0.77;;;;;;;21.47;48.79;101361.25;6142856;23;20017;-70
2021/09/30 13:25:03;;;;;;;3.17;1.00;;;;;;;21.49;49.22;101347.59;6169038;23;20603;-71
2021/09/30 13:27:30;;;;;;;4.82;1.13;;;;;;;21.54;49.45;101353.03;6191786;23;20019;-71
2021/09/30 13:29:56;;;;;;;5.72;1.05;;;;;;;21.60;49.00;101340.31;6143035;23;20067;-70
2021/09/30 13:32:24;;;;;;;4.55;0.85;;;;;;;21.62;49.76;101343.63;6167125;23;20008;-71
2021/09/30 13:34:50;;;;;;;4.72;0.80;;;;;;;21.63;49.40;101333.97;6143502;23;20668;-71
2021/09/30 13:37:15;;;;;;;5.07;0.90;;;;;;;21.62;48.64;101337.16;6142748;23;20012;-71
2021/09/30 13:39:41;;;;;;;5.22;0.80;;;;;;;21.67;49.51;101339.75;6143548;23;20023;-71
2021/09/30 13:42:06;;;;;;;5.20;0.68;;;;;;;21.65;48.31;101325.16;6144005;23;20012;-71
2021/09/30 13:44:32;;;;;;;5.88;0.80;;;;;;;21.64;48.17;101323.50;6169115;23;20050;-71
2021/09/30 13:46:57;;;;;;;4.22;1.02;;;;;;;21.53;48.73;101311.78;6144675;23;20008;-70
2021/09/30 13:49:23;;;;;;;4.30;0.75;;;;;;;21.55;47.82;101315.09;6194151;23;20009;-71
2021/09/30 13:51:48;;;;;;;3.60;0.70;;;;;;;21.54;48.45;101304.16;6168924;23;20012;-71
2021/09/30 13:54:14;;;;;;;4.25;0.80;;;;;;;21.52;48.40;101303.69;6144328;23;20009;-71
2021/09/30 13:56:39;;;;;;;4.10;0.63;;;;;;;21.45;49.67;101301.41;6168898;23;20016;-71
2021/09/30 13:59:05;;;;;;;6.43;0.90;;;;;;;21.43;49.22;101292.47;6144423;23;20433;-71
2021/09/30 14:01:30;;;;;;;5.10;0.90;;;;;;;21.36;50.51;101293.00;6144248;23;20008;-71
2021/09/30 14:03:56;;;;;;;3.65;0.73;;;;;;;21.33;49.85;101285.22;6143858;23;20009;-71
2021/09/30 14:06:22;;;;;;;4.10;0.60;;;;;;;21.26;49.77;101284.16;6144798;23;20008;-70
2021/09/30 14:08:49;;;;;;;3.90;0.68;;;;;;;21.25;48.89;101285.31;6168872;23;20005;-71
2021/09/30 14:11:15;;;;;;;3.85;1.02;;;;;;;21.19;49.39;101282.69;6193205;23;20362;-70
2021/09/30 14:13:41;;;;;;;3.38;0.73;;;;;;;21.13;49.92;101271.97;6119337;23;20054;-70
2021/09/30 14:16:07;;;;;;;4.68;1.10;;;;;;;21.06;49.70;101260.41;6193440;23;20008;-71
2021/09/30 14:18:33;;;;;;;4.13;0.65;;;;;;;21.00;50.14;101273.91;6144091;23;20016;-71